sensor_id;sensor_type;location;lat;lon;timestamp;temperature;humidity
80192;SHT31;69513;51.990;5.704;2023-10-09T00:02:13;16.6;75.1
80192;SHT31;69513;51.990;5.704;2023-10-09T00:04:44;16.6;74.8
80192;SHT31;69513;51.990;5.704;2023-10-09T00:07:17;16.6;74.6
80192;SHT31;69513;51.990;5.704;2023-10-09T00:09:51;16.6;74.7
80192;SHT31;69513;51.990;5.704;2023-10-09T00:12:22;16.6;74.8
80192;SHT31;69513;51.990;5.704;2023-10-09T00:14:54;16.6;75.0
80192;SHT31;69513;51.990;5.704;2023-10-09T00:17:29;16.6;75.2
80192;SHT31;69513;51.990;5.704;2023-10-09T00:20:00;16.6;75.4
80192;SHT31;69513;51.990;5.704;2023-10-09T00:22:36;16.6;75.3
80192;SHT31;69513;51.990;5.704;2023-10-09T00:25:16;16.6;75.5
80192;SHT31;69513;51.990;5.704;2023-10-09T00:27:53;16.6;75.5
80192;SHT31;69513;51.990;5.704;2023-10-09T00:30:23;16.6;75.4
80192;SHT31;69513;51.990;5.704;2023-10-09T00:32:57;16.6;75.7
80192;SHT31;69513;51.990;5.704;2023-10-09T00:35:37;16.6;75.6
80192;SHT31;69513;51.990;5.704;2023-10-09T00:38:14;16.6;75.2
80192;SHT31;69513;51.990;5.704;2023-10-09T00:40:54;16.6;75.3
80192;SHT31;69513;51.990;5.704;2023-10-09T00:43:38;16.6;75.2
80192;SHT31;69513;51.990;5.704;2023-10-09T00:46:11;16.6;75.2
80192;SHT31;69513;51.990;5.704;2023-10-09T00:48:49;16.6;75.5
80192;SHT31;69513;51.990;5.704;2023-10-09T00:51:22;16.6;75.3
80192;SHT31;69513;51.990;5.704;2023-10-09T00:53:57;16.6;75.3
80192;SHT31;69513;51.990;5.704;2023-10-09T00:56:36;16.6;75.2
80192;SHT31;69513;51.990;5.704;2023-10-09T00:59:16;16.6;75.7
80192;SHT31;69513;51.990;5.704;2023-10-09T01:01:48;16.6;75.8
80192;SHT31;69513;51.990;5.704;2023-10-09T01:04:25;16.6;76.1
80192;SHT31;69513;51.990;5.704;2023-10-09T01:06:58;16.6;76.2
80192;SHT31;69513;51.990;5.704;2023-10-09T01:09:43;16.6;76.5
80192;SHT31;69513;51.990;5.704;2023-10-09T01:12:18;16.6;76.4
80192;SHT31;69513;51.990;5.704;2023-10-09T06:05:27;19.8;69.5
80192;SHT31;69513;51.990;5.704;2023-10-09T06:08:16;19.7;69.8
80192;SHT31;69513;51.990;5.704;2023-10-09T06:10:52;19.5;70.3
80192;SHT31;69513;51.990;5.704;2023-10-09T06:13:29;19.4;70.8
80192;SHT31;69513;51.990;5.704;2023-10-09T06:16:14;19.2;71.3
80192;SHT31;69513;51.990;5.704;2023-10-09T06:18:54;19.1;71.9
80192;SHT31;69513;51.990;5.704;2023-10-09T06:21:29;19.0;72.5
80192;SHT31;69513;51.990;5.704;2023-10-09T06:25:17;18.8;73.3
80192;SHT31;69513;51.990;5.704;2023-10-09T06:27:52;18.7;73.7
80192;SHT31;69513;51.990;5.704;2023-10-09T06:30:29;18.6;74.4
80192;SHT31;69513;51.990;5.704;2023-10-09T06:33:04;18.6;74.7
80192;SHT31;69513;51.990;5.704;2023-10-09T06:35:53;18.5;75.1
80192;SHT31;69513;51.990;5.704;2023-10-09T06:38:26;18.4;75.2
80192;SHT31;69513;51.990;5.704;2023-10-09T06:41:08;18.4;75.7
80192;SHT31;69513;51.990;5.704;2023-10-09T06:44:07;18.3;76.0
80192;SHT31;69513;51.990;5.704;2023-10-09T06:46:41;18.3;76.1
80192;SHT31;69513;51.990;5.704;2023-10-09T06:49:19;18.2;76.4
80192;SHT31;69513;51.990;5.704;2023-10-09T06:52:01;18.2;76.9
80192;SHT31;69513;51.990;5.704;2023-10-09T06:54:44;18.2;77.1
80192;SHT31;69513;51.990;5.704;2023-10-09T06:57:20;18.2;77.2
80192;SHT31;69513;51.990;5.704;2023-10-09T07:00:41;18.1;77.3
80192;SHT31;69513;51.990;5.704;2023-10-09T07:03:28;18.1;77.3
80192;SHT31;69513;51.990;5.704;2023-10-09T07:06:06;18.1;77.3
80192;SHT31;69513;51.990;5.704;2023-10-09T07:08:44;18.1;77.6
80192;SHT31;69513;51.990;5.704;2023-10-09T07:11:19;18.1;77.9
80192;SHT31;69513;51.990;5.704;2023-10-09T07:13:56;18.1;77.9
80192;SHT31;69513;51.990;5.704;2023-10-09T07:16:30;18.1;78.0
80192;SHT31;69513;51.990;5.704;2023-10-09T07:19:04;18.1;78.5
80192;SHT31;69513;51.990;5.704;2023-10-09T07:21:44;18.1;78.7
80192;SHT31;69513;51.990;5.704;2023-10-09T07:24:19;18.1;78.6
80192;SHT31;69513;51.990;5.704;2023-10-09T07:26:52;18.1;78.6
80192;SHT31;69513;51.990;5.704;2023-10-09T07:29:23;18.1;78.8
80192;SHT31;69513;51.990;5.704;2023-10-09T07:31:55;18.1;78.8
80192;SHT31;69513;51.990;5.704;2023-10-09T07:34:33;18.1;79.1
80192;SHT31;69513;51.990;5.704;2023-10-09T07:37:27;18.1;79.2
80192;SHT31;69513;51.990;5.704;2023-10-09T07:40:05;18.1;79.1
80192;SHT31;69513;51.990;5.704;2023-10-09T07:42:36;18.1;79.2
80192;SHT31;69513;51.990;5.704;2023-10-09T07:45:16;18.1;79.4
80192;SHT31;69513;51.990;5.704;2023-10-09T07:48:29;18.1;79.4
80192;SHT31;69513;51.990;5.704;2023-10-09T07:51:13;18.1;79.5
80192;SHT31;69513;51.990;5.704;2023-10-09T07:53:44;18.2;79.6
80192;SHT31;69513;51.990;5.704;2023-10-09T07:56:19;18.2;79.7
80192;SHT31;69513;51.990;5.704;2023-10-09T07:58:50;18.2;79.8
80192;SHT31;69513;51.990;5.704;2023-10-09T08:01:23;18.2;79.7
80192;SHT31;69513;51.990;5.704;2023-10-09T08:03:57;18.2;79.8
80192;SHT31;69513;51.990;5.704;2023-10-09T08:06:32;18.3;80.1
80192;SHT31;69513;51.990;5.704;2023-10-09T08:09:12;18.3;80.0
80192;SHT31;69513;51.990;5.704;2023-10-09T08:11:52;18.3;80.3
80192;SHT31;69513;51.990;5.704;2023-10-09T08:14:49;18.4;80.4
80192;SHT31;69513;51.990;5.704;2023-10-09T08:17:27;18.4;80.3
80192;SHT31;69513;51.990;5.704;2023-10-09T08:20:03;18.4;80.2
80192;SHT31;69513;51.990;5.704;2023-10-09T08:22:45;18.5;80.2
80192;SHT31;69513;51.990;5.704;2023-10-09T08:25:19;18.5;79.8
80192;SHT31;69513;51.990;5.704;2023-10-09T08:28:02;18.5;80.1
80192;SHT31;69513;51.990;5.704;2023-10-09T08:30:49;18.5;79.8
80192;SHT31;69513;51.990;5.704;2023-10-09T08:33:25;18.5;80.0
80192;SHT31;69513;51.990;5.704;2023-10-09T08:36:20;18.6;80.0
80192;SHT31;69513;51.990;5.704;2023-10-09T08:38:50;18.6;80.0
80192;SHT31;69513;51.990;5.704;2023-10-09T08:41:25;18.6;80.5
80192;SHT31;69513;51.990;5.704;2023-10-09T08:43:59;18.6;80.2
80192;SHT31;69513;51.990;5.704;2023-10-09T08:46:32;18.7;80.2
80192;SHT31;69513;51.990;5.704;2023-10-09T08:49:06;18.7;80.0
80192;SHT31;69513;51.990;5.704;2023-10-09T08:51:38;18.7;80.1
80192;SHT31;69513;51.990;5.704;2023-10-09T08:54:10;18.8;80.1
80192;SHT31;69513;51.990;5.704;2023-10-09T08:56:46;18.8;80.2
80192;SHT31;69513;51.990;5.704;2023-10-09T08:59:19;18.8;80.1
80192;SHT31;69513;51.990;5.704;2023-10-09T09:01:51;18.8;79.4
80192;SHT31;69513;51.990;5.704;2023-10-09T09:04:42;18.9;79.9
80192;SHT31;69513;51.990;5.704;2023-10-09T09:07:26;18.9;79.4
80192;SHT31;69513;51.990;5.704;2023-10-09T09:10:01;18.9;79.3
80192;SHT31;69513;51.990;5.704;2023-10-09T09:12:38;19.0;79.3
80192;SHT31;69513;51.990;5.704;2023-10-09T09:15:14;19.0;79.7
80192;SHT31;69513;51.990;5.704;2023-10-09T09:17:51;19.0;79.9
80192;SHT31;69513;51.990;5.704;2023-10-09T09:20:25;19.1;79.6
80192;SHT31;69513;51.990;5.704;2023-10-09T09:23:02;19.1;80.1
80192;SHT31;69513;51.990;5.704;2023-10-09T09:25:44;19.1;78.7
80192;SHT31;69513;51.990;5.704;2023-10-09T09:28:16;19.2;79.3
80192;SHT31;69513;51.990;5.704;2023-10-09T09:31:08;19.2;79.0
80192;SHT31;69513;51.990;5.704;2023-10-09T09:33:43;19.2;78.7
80192;SHT31;69513;51.990;5.704;2023-10-09T09:36:12;19.3;79.3
80192;SHT31;69513;51.990;5.704;2023-10-09T09:38:42;19.3;78.6
80192;SHT31;69513;51.990;5.704;2023-10-09T09:41:18;19.3;78.8
80192;SHT31;69513;51.990;5.704;2023-10-09T09:43:57;19.4;78.2
80192;SHT31;69513;51.990;5.704;2023-10-09T09:46:32;19.4;78.9
80192;SHT31;69513;51.990;5.704;2023-10-09T09:49:05;19.5;78.6
80192;SHT31;69513;51.990;5.704;2023-10-09T09:51:40;19.5;78.7
80192;SHT31;69513;51.990;5.704;2023-10-09T09:54:13;19.6;78.2
80192;SHT31;69513;51.990;5.704;2023-10-09T09:56:46;19.6;78.4
80192;SHT31;69513;51.990;5.704;2023-10-09T09:59:26;19.6;78.3
80192;SHT31;69513;51.990;5.704;2023-10-09T10:02:04;19.7;77.5
80192;SHT31;69513;51.990;5.704;2023-10-09T10:04:39;19.7;77.0
80192;SHT31;69513;51.990;5.704;2023-10-09T10:07:12;19.7;77.3
80192;SHT31;69513;51.990;5.704;2023-10-09T10:09:43;19.8;77.6
80192;SHT31;69513;51.990;5.704;2023-10-09T10:13:54;19.8;76.4
80192;SHT31;69513;51.990;5.704;2023-10-09T10:16:06;19.9;76.3
80192;SHT31;69513;51.990;5.704;2023-10-09T10:18:58;19.9;76.0
80192;SHT31;69513;51.990;5.704;2023-10-09T10:21:35;19.9;76.5
80192;SHT31;69513;51.990;5.704;2023-10-09T10:24:42;19.9;76.9
80192;SHT31;69513;51.990;5.704;2023-10-09T10:27:25;20.0;77.2
80192;SHT31;69513;51.990;5.704;2023-10-09T10:30:30;20.0;77.3
80192;SHT31;69513;51.990;5.704;2023-10-09T10:33:05;20.1;75.9
80192;SHT31;69513;51.990;5.704;2023-10-09T10:35:43;20.1;76.2
80192;SHT31;69513;51.990;5.704;2023-10-09T10:38:24;20.2;76.2
80192;SHT31;69513;51.990;5.704;2023-10-09T10:41:09;20.2;75.2
80192;SHT31;69513;51.990;5.704;2023-10-09T10:43:44;20.3;75.4
80192;SHT31;69513;51.990;5.704;2023-10-09T10:46:42;20.3;75.6
80192;SHT31;69513;51.990;5.704;2023-10-09T10:49:17;20.3;75.3
80192;SHT31;69513;51.990;5.704;2023-10-09T10:51:54;20.4;74.8
80192;SHT31;69513;51.990;5.704;2023-10-09T10:54:35;20.4;73.7
80192;SHT31;69513;51.990;5.704;2023-10-09T10:57:22;20.4;75.2
80192;SHT31;69513;51.990;5.704;2023-10-09T11:00:12;20.4;74.6
80192;SHT31;69513;51.990;5.704;2023-10-09T11:02:50;20.5;74.7
80192;SHT31;69513;51.990;5.704;2023-10-09T11:05:25;20.5;74.3
80192;SHT31;69513;51.990;5.704;2023-10-09T11:08:00;20.5;74.5
80192;SHT31;69513;51.990;5.704;2023-10-09T11:10:36;20.6;73.2
80192;SHT31;69513;51.990;5.704;2023-10-09T11:13:24;20.6;73.3
80192;SHT31;69513;51.990;5.704;2023-10-09T11:16:07;20.6;73.2
80192;SHT31;69513;51.990;5.704;2023-10-09T11:18:51;20.6;72.9
80192;SHT31;69513;51.990;5.704;2023-10-09T11:21:24;20.6;72.9
80192;SHT31;69513;51.990;5.704;2023-10-09T11:24:10;20.7;73.7
80192;SHT31;69513;51.990;5.704;2023-10-09T11:27:01;20.7;73.2
80192;SHT31;69513;51.990;5.704;2023-10-09T11:29:35;20.7;73.1
80192;SHT31;69513;51.990;5.704;2023-10-09T11:32:28;20.8;73.2
80192;SHT31;69513;51.990;5.704;2023-10-09T11:35:12;20.8;73.1
80192;SHT31;69513;51.990;5.704;2023-10-09T11:37:58;20.8;73.8
80192;SHT31;69513;51.990;5.704;2023-10-09T11:40:33;20.9;74.0
80192;SHT31;69513;51.990;5.704;2023-10-09T11:43:08;20.9;72.8
80192;SHT31;69513;51.990;5.704;2023-10-09T11:45:41;21.0;73.9
80192;SHT31;69513;51.990;5.704;2023-10-09T11:48:19;21.0;72.3
80192;SHT31;69513;51.990;5.704;2023-10-09T11:51:01;21.1;72.1
80192;SHT31;69513;51.990;5.704;2023-10-09T11:53:49;21.1;73.0
80192;SHT31;69513;51.990;5.704;2023-10-09T11:56:23;21.1;70.9
80192;SHT31;69513;51.990;5.704;2023-10-09T11:58:55;21.2;71.5
80192;SHT31;69513;51.990;5.704;2023-10-09T12:01:26;21.2;71.7
80192;SHT31;69513;51.990;5.704;2023-10-09T12:04:02;21.2;70.3
80192;SHT31;69513;51.990;5.704;2023-10-09T12:06:32;21.3;71.7
80192;SHT31;69513;51.990;5.704;2023-10-09T12:09:05;21.3;71.5
80192;SHT31;69513;51.990;5.704;2023-10-09T12:11:40;21.3;70.7
80192;SHT31;69513;51.990;5.704;2023-10-09T12:14:09;21.3;71.0
80192;SHT31;69513;51.990;5.704;2023-10-09T12:16:39;21.4;69.9
80192;SHT31;69513;51.990;5.704;2023-10-09T12:19:13;21.4;69.4
80192;SHT31;69513;51.990;5.704;2023-10-09T12:21:44;21.4;69.3
80192;SHT31;69513;51.990;5.704;2023-10-09T12:24:14;21.4;69.9
80192;SHT31;69513;51.990;5.704;2023-10-09T12:26:48;21.4;70.1
80192;SHT31;69513;51.990;5.704;2023-10-09T12:29:21;21.5;68.5
80192;SHT31;69513;51.990;5.704;2023-10-09T12:31:54;21.5;70.3
80192;SHT31;69513;51.990;5.704;2023-10-09T12:34:29;21.5;69.3
80192;SHT31;69513;51.990;5.704;2023-10-09T12:36:59;21.5;68.5
80192;SHT31;69513;51.990;5.704;2023-10-09T12:39:30;21.5;69.9
80192;SHT31;69513;51.990;5.704;2023-10-09T12:42:00;21.5;69.1
80192;SHT31;69513;51.990;5.704;2023-10-09T12:44:35;21.6;69.4
80192;SHT31;69513;51.990;5.704;2023-10-09T12:47:08;21.6;68.4
80192;SHT31;69513;51.990;5.704;2023-10-09T12:49:40;21.6;69.8
80192;SHT31;69513;51.990;5.704;2023-10-09T12:52:11;21.6;70.0
80192;SHT31;69513;51.990;5.704;2023-10-09T12:54:43;21.6;69.0
80192;SHT31;69513;51.990;5.704;2023-10-09T12:57:15;21.6;69.7
80192;SHT31;69513;51.990;5.704;2023-10-09T12:59:44;21.6;70.0
80192;SHT31;69513;51.990;5.704;2023-10-09T13:02:16;21.6;69.3
80192;SHT31;69513;51.990;5.704;2023-10-09T13:04:58;21.6;69.7
80192;SHT31;69513;51.990;5.704;2023-10-09T13:07:32;21.6;70.2
80192;SHT31;69513;51.990;5.704;2023-10-09T13:10:04;21.6;68.9
80192;SHT31;69513;51.990;5.704;2023-10-09T13:12:42;21.6;69.8
80192;SHT31;69513;51.990;5.704;2023-10-09T13:15:12;21.6;70.4
80192;SHT31;69513;51.990;5.704;2023-10-09T13:17:42;21.6;70.2
80192;SHT31;69513;51.990;5.704;2023-10-09T13:20:11;21.6;71.2
80192;SHT31;69513;51.990;5.704;2023-10-09T13:22:44;21.6;71.1
80192;SHT31;69513;51.990;5.704;2023-10-09T13:25:16;21.6;71.6
80192;SHT31;69513;51.990;5.704;2023-10-09T13:27:51;21.6;70.5
80192;SHT31;69513;51.990;5.704;2023-10-09T13:30:21;21.6;70.2
80192;SHT31;69513;51.990;5.704;2023-10-09T13:32:51;21.6;70.9
80192;SHT31;69513;51.990;5.704;2023-10-09T13:35:22;21.6;71.6
80192;SHT31;69513;51.990;5.704;2023-10-09T13:37:57;21.6;69.1
80192;SHT31;69513;51.990;5.704;2023-10-09T13:40:27;21.6;70.0
80192;SHT31;69513;51.990;5.704;2023-10-09T13:43:00;21.6;70.2
80192;SHT31;69513;51.990;5.704;2023-10-09T13:45:30;21.6;69.3
80192;SHT31;69513;51.990;5.704;2023-10-09T13:48:00;21.6;69.2
80192;SHT31;69513;51.990;5.704;2023-10-09T13:50:34;21.6;69.9
80192;SHT31;69513;51.990;5.704;2023-10-09T13:53:10;21.6;69.3
80192;SHT31;69513;51.990;5.704;2023-10-09T13:55:42;21.6;69.7
80192;SHT31;69513;51.990;5.704;2023-10-09T13:58:15;21.5;70.4
80192;SHT31;69513;51.990;5.704;2023-10-09T14:00:48;21.5;70.2
80192;SHT31;69513;51.990;5.704;2023-10-09T14:03:21;21.5;70.5
80192;SHT31;69513;51.990;5.704;2023-10-09T14:05:54;21.5;70.1
80192;SHT31;69513;51.990;5.704;2023-10-09T14:08:26;21.5;69.9
80192;SHT31;69513;51.990;5.704;2023-10-09T14:10:57;21.5;70.5
80192;SHT31;69513;51.990;5.704;2023-10-09T14:13:27;21.5;70.5
80192;SHT31;69513;51.990;5.704;2023-10-09T14:15:59;21.5;71.5
80192;SHT31;69513;51.990;5.704;2023-10-09T14:18:30;21.5;70.6
80192;SHT31;69513;51.990;5.704;2023-10-09T14:21:03;21.5;71.2
80192;SHT31;69513;51.990;5.704;2023-10-09T14:23:39;21.5;71.1
80192;SHT31;69513;51.990;5.704;2023-10-09T14:26:13;21.5;70.8
80192;SHT31;69513;51.990;5.704;2023-10-09T14:28:47;21.5;71.0
80192;SHT31;69513;51.990;5.704;2023-10-09T14:31:17;21.5;70.2
80192;SHT31;69513;51.990;5.704;2023-10-09T14:33:52;21.5;70.9
80192;SHT31;69513;51.990;5.704;2023-10-09T14:36:23;21.5;70.2
80192;SHT31;69513;51.990;5.704;2023-10-09T14:38:58;21.5;70.5
80192;SHT31;69513;51.990;5.704;2023-10-09T14:41:29;21.5;70.3
80192;SHT31;69513;51.990;5.704;2023-10-09T14:44:00;21.5;69.8
80192;SHT31;69513;51.990;5.704;2023-10-09T14:46:33;21.5;70.1
80192;SHT31;69513;51.990;5.704;2023-10-09T14:49:04;21.5;69.7
80192;SHT31;69513;51.990;5.704;2023-10-09T14:51:34;21.4;69.4
80192;SHT31;69513;51.990;5.704;2023-10-09T14:54:06;21.4;69.8
80192;SHT31;69513;51.990;5.704;2023-10-09T14:56:38;21.4;70.0
80192;SHT31;69513;51.990;5.704;2023-10-09T14:59:09;21.4;71.2
80192;SHT31;69513;51.990;5.704;2023-10-09T15:01:41;21.4;71.6
80192;SHT31;69513;51.990;5.704;2023-10-09T15:04:12;21.4;71.8
80192;SHT31;69513;51.990;5.704;2023-10-09T15:06:44;21.4;71.7
80192;SHT31;69513;51.990;5.704;2023-10-09T15:09:17;21.5;71.1
80192;SHT31;69513;51.990;5.704;2023-10-09T15:11:55;21.5;71.3
80192;SHT31;69513;51.990;5.704;2023-10-09T15:14:26;21.5;71.3
80192;SHT31;69513;51.990;5.704;2023-10-09T15:16:57;21.5;70.5
80192;SHT31;69513;51.990;5.704;2023-10-09T15:19:28;21.5;69.8
80192;SHT31;69513;51.990;5.704;2023-10-09T15:21:59;21.5;70.0
80192;SHT31;69513;51.990;5.704;2023-10-09T15:24:35;21.5;70.4
80192;SHT31;69513;51.990;5.704;2023-10-09T15:27:05;21.5;70.0
80192;SHT31;69513;51.990;5.704;2023-10-09T15:29:37;21.5;69.9
80192;SHT31;69513;51.990;5.704;2023-10-09T15:32:12;21.5;69.4
80192;SHT31;69513;51.990;5.704;2023-10-09T15:34:48;21.5;69.9
80192;SHT31;69513;51.990;5.704;2023-10-09T15:37:18;21.4;70.2
80192;SHT31;69513;51.990;5.704;2023-10-09T15:39:47;21.4;70.2
80192;SHT31;69513;51.990;5.704;2023-10-09T15:42:17;21.4;69.9
80192;SHT31;69513;51.990;5.704;2023-10-09T15:44:47;21.4;70.0
80192;SHT31;69513;51.990;5.704;2023-10-09T15:47:16;21.4;70.1
80192;SHT31;69513;51.990;5.704;2023-10-09T15:49:47;21.4;70.9
80192;SHT31;69513;51.990;5.704;2023-10-09T15:52:20;21.4;71.5
80192;SHT31;69513;51.990;5.704;2023-10-09T15:54:54;21.4;70.1
80192;SHT31;69513;51.990;5.704;2023-10-09T15:57:25;21.4;70.3
80192;SHT31;69513;51.990;5.704;2023-10-09T15:59:55;21.4;70.7
80192;SHT31;69513;51.990;5.704;2023-10-09T16:02:26;21.4;70.2
80192;SHT31;69513;51.990;5.704;2023-10-09T16:04:55;21.3;70.8
80192;SHT31;69513;51.990;5.704;2023-10-09T16:07:24;21.3;70.5
80192;SHT31;69513;51.990;5.704;2023-10-09T16:09:56;21.3;70.3
80192;SHT31;69513;51.990;5.704;2023-10-09T16:12:28;21.3;70.4
80192;SHT31;69513;51.990;5.704;2023-10-09T16:14:59;21.3;70.5
80192;SHT31;69513;51.990;5.704;2023-10-09T16:17:30;21.3;71.0
80192;SHT31;69513;51.990;5.704;2023-10-09T16:20:02;21.2;71.2
80192;SHT31;69513;51.990;5.704;2023-10-09T16:22:39;21.2;71.2
80192;SHT31;69513;51.990;5.704;2023-10-09T16:25:10;21.2;71.1
80192;SHT31;69513;51.990;5.704;2023-10-09T16:27:43;21.2;71.3
80192;SHT31;69513;51.990;5.704;2023-10-09T16:30:17;21.2;70.8
80192;SHT31;69513;51.990;5.704;2023-10-09T16:32:50;21.2;71.2
80192;SHT31;69513;51.990;5.704;2023-10-09T16:35:20;21.2;71.3
80192;SHT31;69513;51.990;5.704;2023-10-09T16:37:51;21.1;71.6
80192;SHT31;69513;51.990;5.704;2023-10-09T16:40:21;21.1;71.2
80192;SHT31;69513;51.990;5.704;2023-10-09T16:42:51;21.1;71.6
80192;SHT31;69513;51.990;5.704;2023-10-09T16:45:23;21.1;71.8
80192;SHT31;69513;51.990;5.704;2023-10-09T16:47:53;21.1;71.5
80192;SHT31;69513;51.990;5.704;2023-10-09T16:50:28;21.1;71.4
80192;SHT31;69513;51.990;5.704;2023-10-09T16:52:59;21.1;72.0
80192;SHT31;69513;51.990;5.704;2023-10-09T16:55:31;21.0;72.2
80192;SHT31;69513;51.990;5.704;2023-10-09T16:58:03;21.0;72.3
80192;SHT31;69513;51.990;5.704;2023-10-09T17:00:34;21.0;72.4
80192;SHT31;69513;51.990;5.704;2023-10-09T17:03:06;21.0;72.6
80192;SHT31;69513;51.990;5.704;2023-10-09T17:05:39;21.0;72.5
80192;SHT31;69513;51.990;5.704;2023-10-09T17:08:24;21.0;72.6
80192;SHT31;69513;51.990;5.704;2023-10-09T17:10:58;21.0;72.6
80192;SHT31;69513;51.990;5.704;2023-10-09T17:13:33;21.0;72.7
80192;SHT31;69513;51.990;5.704;2023-10-09T17:16:02;21.0;72.7
80192;SHT31;69513;51.990;5.704;2023-10-09T17:18:39;21.0;72.4
80192;SHT31;69513;51.990;5.704;2023-10-09T17:21:14;21.0;72.3
80192;SHT31;69513;51.990;5.704;2023-10-09T17:23:47;21.0;72.2
80192;SHT31;69513;51.990;5.704;2023-10-09T17:26:18;20.9;72.2
80192;SHT31;69513;51.990;5.704;2023-10-09T17:28:51;20.9;72.1
80192;SHT31;69513;51.990;5.704;2023-10-09T17:31:22;20.9;72.2
80192;SHT31;69513;51.990;5.704;2023-10-09T17:33:54;20.9;72.2
80192;SHT31;69513;51.990;5.704;2023-10-09T17:36:25;20.9;72.2
80192;SHT31;69513;51.990;5.704;2023-10-09T17:38:54;20.8;72.2
80192;SHT31;69513;51.990;5.704;2023-10-09T17:41:28;20.8;72.2
80192;SHT31;69513;51.990;5.704;2023-10-09T17:44:04;20.8;72.4
80192;SHT31;69513;51.990;5.704;2023-10-09T17:46:35;20.8;72.4
80192;SHT31;69513;51.990;5.704;2023-10-09T17:49:05;20.7;72.5
80192;SHT31;69513;51.990;5.704;2023-10-09T17:51:35;20.7;72.6
80192;SHT31;69513;51.990;5.704;2023-10-09T17:54:07;20.7;72.6
80192;SHT31;69513;51.990;5.704;2023-10-09T17:56:41;20.7;72.7
80192;SHT31;69513;51.990;5.704;2023-10-09T17:59:11;20.6;72.6
80192;SHT31;69513;51.990;5.704;2023-10-09T18:01:40;20.6;72.6
80192;SHT31;69513;51.990;5.704;2023-10-09T18:04:10;20.6;72.7
80192;SHT31;69513;51.990;5.704;2023-10-09T18:06:41;20.6;72.9
80192;SHT31;69513;51.990;5.704;2023-10-09T18:09:14;20.6;73.0
80192;SHT31;69513;51.990;5.704;2023-10-09T18:11:45;20.5;73.0
80192;SHT31;69513;51.990;5.704;2023-10-09T18:14:17;20.5;73.0
80192;SHT31;69513;51.990;5.704;2023-10-09T18:16:47;20.5;73.0
80192;SHT31;69513;51.990;5.704;2023-10-09T18:19:18;20.5;73.2
80192;SHT31;69513;51.990;5.704;2023-10-09T18:21:48;20.5;73.2
80192;SHT31;69513;51.990;5.704;2023-10-09T18:24:20;20.5;73.3
80192;SHT31;69513;51.990;5.704;2023-10-09T18:26:51;20.5;73.3
80192;SHT31;69513;51.990;5.704;2023-10-09T18:29:22;20.4;73.2
80192;SHT31;69513;51.990;5.704;2023-10-09T18:31:53;20.4;73.1
80192;SHT31;69513;51.990;5.704;2023-10-09T18:34:22;20.4;73.3
80192;SHT31;69513;51.990;5.704;2023-10-09T18:36:57;20.4;73.3
80192;SHT31;69513;51.990;5.704;2023-10-09T18:39:27;20.4;73.2
80192;SHT31;69513;51.990;5.704;2023-10-09T18:41:58;20.4;73.3
80192;SHT31;69513;51.990;5.704;2023-10-09T18:44:28;20.4;73.3
80192;SHT31;69513;51.990;5.704;2023-10-09T18:46:57;20.4;73.3
80192;SHT31;69513;51.990;5.704;2023-10-09T18:49:28;20.4;73.3
80192;SHT31;69513;51.990;5.704;2023-10-09T18:51:58;20.3;73.6
80192;SHT31;69513;51.990;5.704;2023-10-09T18:54:29;20.3;73.5
80192;SHT31;69513;51.990;5.704;2023-10-09T18:57:00;20.3;73.1
80192;SHT31;69513;51.990;5.704;2023-10-09T18:59:32;20.3;73.1
80192;SHT31;69513;51.990;5.704;2023-10-09T19:02:03;20.3;73.1
80192;SHT31;69513;51.990;5.704;2023-10-09T19:04:37;20.3;73.4
80192;SHT31;69513;51.990;5.704;2023-10-09T19:07:07;20.3;73.7
80192;SHT31;69513;51.990;5.704;2023-10-09T19:09:37;20.2;73.7
80192;SHT31;69513;51.990;5.704;2023-10-09T19:12:10;20.2;73.3
80192;SHT31;69513;51.990;5.704;2023-10-09T19:14:40;20.2;73.7
80192;SHT31;69513;51.990;5.704;2023-10-09T19:17:12;20.2;73.7
80192;SHT31;69513;51.990;5.704;2023-10-09T19:19:44;20.2;73.7
80192;SHT31;69513;51.990;5.704;2023-10-09T19:22:15;20.2;74.0
80192;SHT31;69513;51.990;5.704;2023-10-09T19:24:45;20.2;73.5
80192;SHT31;69513;51.990;5.704;2023-10-09T19:27:21;20.2;73.7
80192;SHT31;69513;51.990;5.704;2023-10-09T19:29:53;20.2;73.7
80192;SHT31;69513;51.990;5.704;2023-10-09T19:32:24;20.2;73.5
80192;SHT31;69513;51.990;5.704;2023-10-09T19:34:56;20.2;73.6
80192;SHT31;69513;51.990;5.704;2023-10-09T19:37:25;20.2;73.7
80192;SHT31;69513;51.990;5.704;2023-10-09T19:39:55;20.2;73.8
80192;SHT31;69513;51.990;5.704;2023-10-09T19:42:24;20.2;73.7
80192;SHT31;69513;51.990;5.704;2023-10-09T19:44:54;20.2;73.7
80192;SHT31;69513;51.990;5.704;2023-10-09T19:47:25;20.2;73.7
80192;SHT31;69513;51.990;5.704;2023-10-09T19:49:56;20.1;73.7
80192;SHT31;69513;51.990;5.704;2023-10-09T19:52:28;20.1;73.8
80192;SHT31;69513;51.990;5.704;2023-10-09T19:59:59;20.3;73.9
80192;SHT31;69513;51.990;5.704;2023-10-09T20:02:39;20.3;73.3
80192;SHT31;69513;51.990;5.704;2023-10-09T20:05:09;20.4;73.1
80192;SHT31;69513;51.990;5.704;2023-10-09T20:07:45;20.3;73.0
80192;SHT31;69513;51.990;5.704;2023-10-09T20:10:17;20.3;73.0
80192;SHT31;69513;51.990;5.704;2023-10-09T20:12:46;20.3;73.0
80192;SHT31;69513;51.990;5.704;2023-10-09T20:15:17;20.3;73.1
80192;SHT31;69513;51.990;5.704;2023-10-09T20:17:49;20.3;73.1
80192;SHT31;69513;51.990;5.704;2023-10-09T20:20:19;20.3;73.2
80192;SHT31;69513;51.990;5.704;2023-10-09T20:22:52;20.2;73.3
80192;SHT31;69513;51.990;5.704;2023-10-09T20:25:23;20.2;73.4
80192;SHT31;69513;51.990;5.704;2023-10-09T20:27:56;20.2;73.5
